Time;durP1;ratioP1;P1;durP2;ratioP2;P2;SDS_P1;SDS_P2;PMS_P1;PMS_P2;Temp;Humidity;BMP_temperature;BMP_pressure;BME280_temperature;BME280_humidity;BME280_pressure;Samples;Min_cycle;Max_cycle;Signal;HPM_P1;HPM_P2
2022/11/05 00:10:22;;;;;;;0.50;0.50;;;7.80;99.90;;;;;;5065312;28;20337;-50
2022/11/05 00:18:20;;;;;;;1.13;0.40;;;7.70;99.90;;;;;;5066870;28;20207;-50
2022/11/05 00:20:48;;;;;;;3.60;1.27;;;7.70;99.90;;;;;;5063204;28;20209;-52
2022/11/05 00:26:01;;;;;;;2.87;0.70;;;7.70;99.90;;;;;;5063432;28;20202;-52
2022/11/05 00:28:29;;;;;;;2.03;0.73;;;7.70;99.90;;;;;;5069711;28;20217;-52
2022/11/05 00:31:01;;;;;;;0.73;0.53;;;7.70;99.90;;;;;;5054490;28;20592;-52
2022/11/05 00:33:30;;;;;;;1.10;0.70;;;7.80;99.90;;;;;;5060351;28;20245;-50
2022/11/05 00:35:57;;;;;;;0.30;0.30;;;7.80;99.90;;;;;;5052305;28;20207;-52
2022/11/05 00:38:24;;;;;;;0.60;0.60;;;7.70;99.90;;;;;;5070826;28;20207;-52
2022/11/05 00:40:51;;;;;;;2.57;0.60;;;7.70;99.90;;;;;;5068760;28;20203;-49
2022/11/05 00:46:02;;;;;;;1.23;0.30;;;7.70;99.90;;;;;;5055307;28;20201;-51
2022/11/05 00:51:15;;;;;;;0.40;0.40;;;7.70;99.90;;;;;;5065229;28;20212;-50
2022/11/05 00:53:42;;;;;;;0.30;0.30;;;7.70;99.90;;;;;;5063520;28;20216;-51
2022/11/05 00:56:09;;;;;;;0.17;0.17;;;7.70;99.90;;;;;;5071706;28;20207;-50
2022/11/05 00:58:36;;;;;;;1.90;0.10;;;7.80;99.90;;;;;;5069187;28;20203;-53
2022/11/05 01:01:04;;;;;;;0.20;0.20;;;7.80;99.90;;;;;;5060295;28;20226;-51
2022/11/05 01:03:35;;;;;;;0.50;0.20;;;7.70;99.90;;;;;;5059315;28;20226;-50
2022/11/05 01:06:08;;;;;;;0.17;0.17;;;7.70;99.90;;;;;;5059806;28;20199;-49
2022/11/05 01:08:35;;;;;;;0.30;0.20;;;7.60;99.90;;;;;;5054924;28;20231;-52
2022/11/05 01:11:08;;;;;;;3.50;0.30;;;7.70;99.90;;;;;;5071788;28;20203;-49
2022/11/05 01:13:35;;;;;;;0.30;0.30;;;7.70;99.90;;;;;;5062175;28;20234;-51
2022/11/05 01:16:07;;;;;;;0.20;0.20;;;7.60;99.90;;;;;;5058746;28;20206;-51
2022/11/05 01:18:38;;;;;;;2.17;0.63;;;7.60;99.90;;;;;;5063162;28;20230;-51
2022/11/05 01:21:12;;;;;;;0.67;0.20;;;7.60;99.90;;;;;;5065883;28;20240;-52
2022/11/05 01:23:39;;;;;;;0.67;0.20;;;7.50;99.90;;;;;;5062781;28;20218;-51
2022/11/05 01:26:06;;;;;;;0.20;0.20;;;7.60;99.90;;;;;;5063025;28;20202;-49
2022/11/05 01:28:33;;;;;;;0.50;0.50;;;7.60;99.90;;;;;;5063038;28;20223;-51
2022/11/05 01:31:01;;;;;;;0.73;0.30;;;7.60;99.90;;;;;;5067403;28;20738;-50
2022/11/05 01:33:28;;;;;;;0.33;0.33;;;7.50;99.90;;;;;;5058602;28;20738;-50
2022/11/05 01:35:56;;;;;;;0.20;0.20;;;7.50;99.90;;;;;;5059754;28;20200;-50
2022/11/05 01:38:24;;;;;;;0.43;0.30;;;7.50;99.90;;;;;;5063340;28;20196;-49
2022/11/05 01:40:51;;;;;;;0.88;0.30;;;7.60;99.90;;;;;;5067211;28;20950;-50
2022/11/05 01:43:23;;;;;;;0.33;0.33;;;7.60;99.90;;;;;;5057963;28;20381;-50
2022/11/05 01:45:52;;;;;;;0.40;0.40;;;7.70;99.90;;;;;;5060286;28;20211;-50
2022/11/05 01:48:22;;;;;;;1.17;0.70;;;7.70;99.90;;;;;;5060512;28;20958;-49
2022/11/05 01:50:55;;;;;;;0.40;0.40;;;7.70;99.90;;;;;;5059974;28;20197;-51
2022/11/05 01:53:30;;;;;;;0.60;0.50;;;7.70;99.90;;;;;;5060025;28;20751;-50
2022/11/05 01:56:02;;;;;;;2.00;0.53;;;7.70;99.90;;;;;;5069276;28;20211;-50
2022/11/05 01:58:33;;;;;;;0.40;0.40;;;7.80;99.90;;;;;;5062515;28;20203;-49
2022/11/05 02:01:01;;;;;;;0.57;0.50;;;7.80;99.90;;;;;;5069209;28;20203;-49
2022/11/05 02:03:29;;;;;;;0.80;0.77;;;7.80;99.90;;;;;;5062946;28;20245;-49
2022/11/05 02:05:59;;;;;;;0.30;0.30;;;7.80;99.90;;;;;;5059243;28;20211;-52
2022/11/05 02:08:51;;;;;;;0.47;0.47;;;7.80;99.90;;;;;;5060327;28;20724;-50
2022/11/05 02:11:19;;;;;;;0.50;0.50;;;7.80;99.90;;;;;;5060346;28;20203;-50
2022/11/05 02:13:47;;;;;;;0.60;0.60;;;7.80;99.90;;;;;;5060548;28;20332;-52
2022/11/05 02:16:23;;;;;;;0.37;0.30;;;7.80;99.90;;;;;;5051194;28;20202;-50
2022/11/05 02:18:58;;;;;;;0.40;0.40;;;7.80;99.90;;;;;;5053352;28;20190;-52
2022/11/05 02:22:04;;;;;;;1.07;0.30;;;7.80;99.90;;;;;;5067757;28;20237;-49
2022/11/05 02:25:00;;;;;;;0.33;0.33;;;7.80;99.90;;;;;;5050888;28;20201;-51
2022/11/05 02:27:55;;;;;;;0.40;0.40;;;7.80;99.90;;;;;;5061488;28;20258;-50
2022/11/05 02:30:43;;;;;;;0.40;0.40;;;7.80;99.90;;;;;;5060124;28;20257;-50
2022/11/05 02:33:22;;;;;;;0.30;0.30;;;7.80;99.90;;;;;;5055020;28;20230;-51
2022/11/05 02:36:06;;;;;;;0.43;0.43;;;7.80;99.90;;;;;;5070703;28;20207;-51
2022/11/05 02:38:40;;;;;;;1.27;0.40;;;7.90;99.90;;;;;;5070710;28;20570;-50
2022/11/05 02:41:17;;;;;;;0.53;0.40;;;7.90;99.90;;;;;;5069710;28;20204;-51
2022/11/05 02:43:57;;;;;;;0.40;0.40;;;7.90;99.90;;;;;;5068523;28;20222;-50
2022/11/05 02:46:34;;;;;;;0.93;0.63;;;7.90;99.90;;;;;;5062118;28;20198;-48
2022/11/05 02:49:16;;;;;;;0.37;0.37;;;7.90;99.90;;;;;;5068204;28;20253;-51
2022/11/05 02:51:51;;;;;;;0.50;0.50;;;7.90;99.90;;;;;;5056974;28;20665;-49
2022/11/05 02:54:25;;;;;;;0.40;0.40;;;7.90;99.90;;;;;;5063013;28;20211;-50
2022/11/05 02:56:54;;;;;;;0.40;0.40;;;8.10;99.90;;;;;;5065170;28;20218;-50
2022/11/05 02:59:21;;;;;;;2.23;0.30;;;8.10;99.90;;;;;;5064121;28;20202;-49
2022/11/05 03:01:51;;;;;;;0.47;0.47;;;8.00;99.90;;;;;;5061696;28;20207;-51
2022/11/05 03:04:22;;;;;;;8.47;0.60;;;8.00;99.90;;;;;;5068288;28;20208;-51
2022/11/05 03:07:13;;;;;;;0.70;0.50;;;8.00;99.90;;;;;;5069834;28;20266;-49
2022/11/05 03:10:14;;;;;;;0.57;0.57;;;7.90;99.90;;;;;;5058268;28;20213;-50
2022/11/05 03:12:51;;;;;;;1.63;0.40;;;7.90;99.90;;;;;;5057023;28;20234;-51
2022/11/05 03:15:34;;;;;;;1.37;0.40;;;7.90;99.90;;;;;;5054047;28;20219;-50
2022/11/05 03:18:10;;;;;;;0.50;0.50;;;7.90;99.90;;;;;;5059677;28;20206;-49
2022/11/05 03:20:44;;;;;;;0.30;0.30;;;7.90;99.90;;;;;;5063237;28;20203;-49
2022/11/05 03:23:20;;;;;;;0.40;0.40;;;7.80;99.90;;;;;;5074543;22;20235;-49
2022/11/05 03:25:51;;;;;;;0.40;0.40;;;7.80;99.90;;;;;;5052181;28;20209;-49
2022/11/05 03:28:22;;;;;;;0.40;0.40;;;7.80;99.90;;;;;;5041090;28;20231;-49
2022/11/05 03:30:52;;;;;;;0.50;0.50;;;7.80;99.90;;;;;;5034993;28;20196;-50
2022/11/05 03:33:24;;;;;;;0.40;0.40;;;7.80;99.90;;;;;;5038672;28;20224;-49
2022/11/05 03:35:54;;;;;;;0.50;0.50;;;7.80;99.90;;;;;;5051761;28;20206;-49
2022/11/05 03:38:25;;;;;;;0.57;0.57;;;7.80;99.90;;;;;;5053599;28;20211;-49
2022/11/05 03:40:57;;;;;;;0.60;0.60;;;7.80;99.90;;;;;;5045918;28;20208;-49
2022/11/05 03:43:30;;;;;;;0.93;0.30;;;7.80;99.90;;;;;;5054196;28;20705;-50
2022/11/05 03:46:01;;;;;;;0.47;0.47;;;7.80;99.90;;;;;;5045210;28;20209;-49
2022/11/05 03:48:32;;;;;;;0.50;0.50;;;7.80;99.90;;;;;;5046654;28;20223;-49
2022/11/05 03:51:05;;;;;;;0.73;0.73;;;7.80;99.90;;;;;;5050792;28;20199;-48
2022/11/05 03:53:37;;;;;;;0.40;0.40;;;7.80;99.90;;;;;;5045908;28;20815;-50
2022/11/05 03:56:10;;;;;;;0.67;0.67;;;7.70;99.90;;;;;;5034850;28;20204;-50
2022/11/05 03:58:41;;;;;;;0.60;0.60;;;7.80;99.90;;;;;;5043137;28;20203;-48
2022/11/05 04:01:09;;;;;;;0.40;0.40;;;7.80;99.90;;;;;;5040601;28;20211;-49
2022/11/05 04:03:37;;;;;;;0.40;0.40;;;7.70;99.90;;;;;;5050978;28;20228;-49
2022/11/05 04:14:35;;;;;;;0.53;0.50;;;7.80;99.90;;;;;;5008474;28;20208;-49
2022/11/05 04:17:08;;;;;;;2.23;0.60;;;7.80;99.90;;;;;;5012238;28;20216;-48
2022/11/05 04:25:09;;;;;;;0.47;0.40;;;7.80;99.90;;;;;;5042556;28;20214;-48
2022/11/05 04:27:37;;;;;;;0.40;0.40;;;7.70;99.90;;;;;;5037433;28;20220;-49
2022/11/05 04:30:20;;;;;;;0.30;0.30;;;7.70;99.90;;;;;;5045024;28;20240;-48
2022/11/05 04:33:02;;;;;;;0.50;0.50;;;7.70;99.90;;;;;;5044601;28;20659;-48
2022/11/05 04:35:32;;;;;;;0.30;0.30;;;7.70;99.90;;;;;;5045035;28;20211;-48
2022/11/05 04:37:59;;;;;;;0.40;0.40;;;7.70;99.90;;;;;;5045089;28;20243;-49
2022/11/05 04:40:26;;;;;;;0.30;0.30;;;7.70;99.90;;;;;;5052896;28;20209;-49
2022/11/05 04:42:55;;;;;;;0.40;0.40;;;7.80;99.90;;;;;;5046105;28;20231;-49
2022/11/05 04:45:22;;;;;;;0.40;0.40;;;7.70;99.90;;;;;;5047710;28;20716;-48
2022/11/05 04:47:49;;;;;;;0.40;0.40;;;7.70;99.90;;;;;;5051937;28;20229;-48
2022/11/05 04:50:17;;;;;;;1.30;0.40;;;7.70;99.90;;;;;;5046366;28;20215;-48
2022/11/05 04:52:45;;;;;;;0.50;0.50;;;7.60;99.90;;;;;;5048276;28;20253;-50
2022/11/05 04:55:12;;;;;;;2.43;0.93;;;7.60;99.90;;;;;;5046265;28;20195;-49
2022/11/05 04:57:40;;;;;;;0.40;0.40;;;7.70;99.90;;;;;;5051654;28;20211;-49
2022/11/05 05:00:08;;;;;;;0.20;0.20;;;7.70;99.90;;;;;;5044810;28;20208;-48
2022/11/05 05:02:36;;;;;;;0.30;0.30;;;7.70;99.90;;;;;;5048745;28;20219;-48
2022/11/05 05:05:05;;;;;;;0.40;0.40;;;7.70;99.90;;;;;;5046320;28;20208;-49
2022/11/05 05:07:32;;;;;;;0.80;0.20;;;7.70;99.90;;;;;;5032792;28;20227;-48
2022/11/05 05:10:01;;;;;;;0.20;0.20;;;7.70;99.90;;;;;;5035142;28;20196;-48
2022/11/05 05:12:28;;;;;;;0.20;0.20;;;7.60;99.90;;;;;;5041980;28;20889;-49
2022/11/05 05:14:56;;;;;;;1.40;0.20;;;7.60;99.90;;;;;;5050598;28;20788;-48
2022/11/05 05:17:23;;;;;;;0.63;0.40;;;7.60;99.90;;;;;;5039852;28;20594;-48
2022/11/05 05:22:36;;;;;;;1.20;0.73;;;7.60;99.90;;;;;;5042598;28;21028;-49
2022/11/05 05:25:05;;;;;;;6.47;2.63;;;7.60;99.90;;;;;;5046918;28;20700;-48
2022/11/05 05:27:32;;;;;;;2.57;1.40;;;7.60;99.90;;;;;;5050780;28;20680;-48
2022/11/05 05:29:59;;;;;;;0.73;0.67;;;7.60;99.90;;;;;;5045820;28;20208;-48
2022/11/05 05:32:27;;;;;;;1.77;0.97;;;7.60;99.90;;;;;;5040744;28;20224;-48
2022/11/05 05:34:54;;;;;;;1.10;0.57;;;7.60;99.90;;;;;;5050709;28;20203;-49
2022/11/05 05:37:21;;;;;;;1.13;0.50;;;7.60;99.90;;;;;;5050619;28;20204;-49
2022/11/05 05:39:48;;;;;;;0.83;0.67;;;7.60;99.90;;;;;;5045452;28;20584;-48
2022/11/05 05:42:17;;;;;;;1.60;0.40;;;7.60;99.90;;;;;;5042945;28;20219;-49
2022/11/05 05:44:44;;;;;;;0.40;0.40;;;7.60;99.90;;;;;;5047346;28;20616;-48
2022/11/05 05:47:11;;;;;;;0.53;0.53;;;7.60;99.90;;;;;;5051044;28;20208;-49
2022/11/05 05:49:38;;;;;;;0.40;0.40;;;7.60;99.90;;;;;;5049967;28;20325;-48
2022/11/05 05:52:05;;;;;;;2.00;0.70;;;7.60;99.90;;;;;;5040355;28;20231;-49
2022/11/05 05:54:32;;;;;;;0.37;0.37;;;7.60;99.90;;;;;;5050036;28;20203;-48
2022/11/05 05:56:59;;;;;;;0.30;0.30;;;7.60;99.90;;;;;;5044540;28;20201;-49
2022/11/05 05:59:27;;;;;;;0.73;0.73;;;7.60;99.90;;;;;;5049641;28;20620;-48
2022/11/05 06:01:55;;;;;;;0.80;0.80;;;7.60;99.90;;;;;;5047560;28;20242;-49
2022/11/05 06:04:22;;;;;;;2.03;1.93;;;7.60;99.90;;;;;;5044817;28;20204;-49
2022/11/05 06:06:48;;;;;;;2.33;2.23;;;7.60;99.90;;;;;;5039216;28;20248;-48
2022/11/05 06:09:17;;;;;;;1.47;1.37;;;7.60;99.90;;;;;;5035590;28;20217;-49
2022/11/05 06:11:44;;;;;;;2.00;1.00;;;7.60;99.90;;;;;;5039561;28;20218;-49
2022/11/05 06:14:12;;;;;;;1.10;0.87;;;7.60;99.90;;;;;;5046519;28;20200;-50
2022/11/05 06:16:40;;;;;;;0.90;0.90;;;7.60;99.90;;;;;;5050896;28;20196;-49
2022/11/05 06:19:08;;;;;;;1.30;1.20;;;7.70;99.90;;;;;;5046236;28;20684;-48
2022/11/05 06:21:35;;;;;;;1.33;1.00;;;7.60;99.90;;;;;;5044417;28;20261;-48
2022/11/05 06:24:03;;;;;;;2.27;1.80;;;7.60;99.90;;;;;;5041634;28;20203;-49
2022/11/05 06:26:30;;;;;;;3.37;2.93;;;7.60;99.90;;;;;;5034248;28;20729;-49
2022/11/05 06:28:57;;;;;;;3.60;3.23;;;7.60;99.90;;;;;;5041079;28;20227;-48
2022/11/05 06:31:24;;;;;;;5.77;5.37;;;7.60;99.90;;;;;;5048629;28;20662;-49
2022/11/05 06:33:53;;;;;;;5.63;4.47;;;7.70;99.90;;;;;;5042120;28;20208;-48
2022/11/05 06:36:20;;;;;;;4.20;3.80;;;7.60;99.90;;;;;;5050854;28;20209;-48
2022/11/05 06:38:47;;;;;;;1.83;1.73;;;7.60;99.90;;;;;;5049700;28;20225;-50
2022/11/05 06:41:15;;;;;;;1.27;1.00;;;7.60;99.90;;;;;;5051328;28;20269;-50
2022/11/05 06:43:42;;;;;;;1.00;1.00;;;7.70;99.90;;;;;;5048883;28;20625;-48
2022/11/05 06:46:11;;;;;;;0.83;0.83;;;7.70;99.90;;;;;;5044155;28;20609;-49
2022/11/05 06:48:38;;;;;;;1.60;1.20;;;7.70;99.90;;;;;;5050405;28;20245;-49
2022/11/05 06:51:08;;;;;;;1.50;1.40;;;7.70;99.90;;;;;;5039680;28;20770;-49
2022/11/05 06:53:36;;;;;;;2.20;1.97;;;7.70;99.90;;;;;;5045401;28;20286;-49
2022/11/05 06:56:04;;;;;;;2.33;2.13;;;7.70;99.90;;;;;;5051894;28;20272;-49
2022/11/05 06:58:31;;;;;;;2.53;2.43;;;7.80;99.90;;;;;;5054152;28;20195;-48
2022/11/05 07:01:01;;;;;;;1.73;1.63;;;7.80;99.90;;;;;;5051787;28;20203;-48
2022/11/05 07:03:28;;;;;;;2.67;2.23;;;7.90;99.90;;;;;;5043025;28;20231;-48
2022/11/05 07:05:58;;;;;;;3.03;2.20;;;7.90;99.90;;;;;;5031615;28;20211;-49
2022/11/05 07:08:26;;;;;;;2.00;1.90;;;7.90;99.90;;;;;;5037229;28;20222;-49
2022/11/05 07:10:53;;;;;;;2.70;2.60;;;7.90;99.90;;;;;;5048330;28;20204;-48
2022/11/05 07:13:20;;;;;;;2.67;2.57;;;7.90;99.90;;;;;;5047941;28;20273;-49
2022/11/05 07:15:47;;;;;;;8.03;6.67;;;7.90;99.90;;;;;;5052977;28;20199;-49
2022/11/05 07:18:14;;;;;;;3.60;3.40;;;7.90;99.90;;;;;;5038150;28;20197;-49
2022/11/05 07:20:41;;;;;;;5.73;5.20;;;8.00;99.90;;;;;;5033491;28;20250;-49
2022/11/05 07:23:12;;;;;;;5.80;5.40;;;8.00;99.90;;;;;;5039307;28;20226;-48
2022/11/05 07:25:42;;;;;;;2.70;2.60;;;8.10;99.90;;;;;;5046358;28;20600;-48
2022/11/05 07:28:10;;;;;;;2.67;2.37;;;8.10;99.90;;;;;;5043963;28;20228;-48
2022/11/05 07:30:38;;;;;;;2.30;2.20;;;8.10;99.90;;;;;;5038261;28;20678;-49
2022/11/05 07:33:05;;;;;;;5.57;5.17;;;8.20;99.90;;;;;;5040993;28;20713;-49
2022/11/05 07:35:32;;;;;;;2.40;2.30;;;8.10;99.90;;;;;;5049043;28;20252;-49
2022/11/05 07:37:59;;;;;;;2.37;1.40;;;8.20;99.90;;;;;;5041936;28;20211;-49
2022/11/05 07:40:28;;;;;;;1.20;1.13;;;8.20;99.90;;;;;;5043294;28;20208;-48
2022/11/05 07:42:59;;;;;;;2.30;2.20;;;8.20;99.90;;;;;;5043427;28;20246;-49
2022/11/05 07:45:28;;;;;;;1.33;1.33;;;8.30;99.90;;;;;;5043709;28;20203;-49
2022/11/05 07:47:57;;;;;;;1.33;1.33;;;8.30;99.90;;;;;;5047387;28;20204;-49
2022/11/05 07:50:26;;;;;;;1.50;0.93;;;8.40;99.90;;;;;;5043355;28;20248;-48
2022/11/05 07:52:53;;;;;;;1.33;1.27;;;8.40;99.90;;;;;;5043943;28;20634;-49
2022/11/05 07:55:20;;;;;;;0.90;0.90;;;8.40;99.90;;;;;;5044599;28;20658;-48
2022/11/05 07:57:50;;;;;;;2.37;0.87;;;8.40;99.90;;;;;;5039764;28;20207;-49
2022/11/05 08:00:20;;;;;;;1.17;1.17;;;8.30;99.90;;;;;;5053029;28;20204;-48
2022/11/05 08:02:57;;;;;;;1.63;1.53;;;8.20;99.90;;;;;;5038622;28;20223;-48
2022/11/05 08:05:24;;;;;;;2.27;1.27;;;8.30;99.90;;;;;;5052533;28;20205;-48
2022/11/05 08:07:54;;;;;;;1.73;1.23;;;8.20;99.90;;;;;;5053161;28;20237;-49
2022/11/05 08:10:21;;;;;;;1.70;1.60;;;8.20;99.90;;;;;;5044977;28;20281;-48
2022/11/05 08:12:48;;;;;;;2.00;1.50;;;8.20;99.90;;;;;;5044316;28;20220;-48
2022/11/05 08:15:16;;;;;;;3.37;3.07;;;8.20;99.90;;;;;;5048151;28;20210;-49
2022/11/05 08:17:44;;;;;;;3.27;1.10;;;8.30;99.90;;;;;;5052339;28;20573;-48
2022/11/05 08:20:12;;;;;;;0.97;0.70;;;8.40;99.90;;;;;;5050653;28;20196;-49
2022/11/05 08:22:43;;;;;;;0.93;0.93;;;8.30;99.90;;;;;;5046643;28;20231;-49
2022/11/05 08:25:10;;;;;;;0.70;0.70;;;8.30;99.90;;;;;;5043211;28;20323;-48
2022/11/05 08:27:39;;;;;;;0.40;0.40;;;8.40;99.90;;;;;;5053162;28;20207;-48
2022/11/05 08:30:07;;;;;;;1.13;0.63;;;8.40;99.90;;;;;;5049456;28;20238;-49
2022/11/05 08:32:35;;;;;;;1.80;1.00;;;8.40;99.90;;;;;;5049998;28;20225;-49
2022/11/05 08:35:04;;;;;;;1.23;1.13;;;8.40;99.90;;;;;;5041610;28;20258;-49
2022/11/05 08:37:31;;;;;;;1.43;0.70;;;8.50;99.90;;;;;;5044283;28;20624;-48
2022/11/05 08:39:58;;;;;;;1.30;1.20;;;8.50;99.90;;;;;;5046376;28;20194;-48
2022/11/05 08:42:25;;;;;;;0.93;0.93;;;8.50;99.90;;;;;;5043272;28;20224;-49
2022/11/05 08:44:52;;;;;;;1.00;1.00;;;8.50;99.90;;;;;;5042267;28;20555;-49
2022/11/05 08:47:19;;;;;;;2.90;1.60;;;8.50;99.90;;;;;;5043460;28;20208;-49
2022/11/05 08:49:46;;;;;;;3.67;3.47;;;8.60;99.90;;;;;;5041883;28;20530;-49
2022/11/05 08:52:15;;;;;;;2.43;2.33;;;8.60;99.90;;;;;;5042383;28;20259;-49
2022/11/05 08:54:43;;;;;;;1.93;1.83;;;8.60;99.90;;;;;;5041950;28;20198;-50
2022/11/05 08:57:10;;;;;;;1.70;1.60;;;8.60;99.90;;;;;;5040452;28;20212;-48
2022/11/05 08:59:37;;;;;;;2.07;1.97;;;8.60;99.90;;;;;;5042117;28;20211;-49
2022/11/05 09:02:04;;;;;;;1.40;1.30;;;8.60;99.90;;;;;;5039975;28;20251;-49
2022/11/05 09:04:31;;;;;;;1.40;1.40;;;8.60;99.90;;;;;;5043391;28;20919;-50
2022/11/05 09:06:58;;;;;;;6.30;3.13;;;8.60;99.90;;;;;;5041213;28;20209;-50
2022/11/05 09:09:27;;;;;;;2.73;2.40;;;8.50;99.90;;;;;;5041920;28;20598;-50
2022/11/05 09:11:54;;;;;;;5.57;2.73;;;8.50;99.90;;;;;;5043231;28;20230;-49
2022/11/05 09:14:21;;;;;;;3.37;2.77;;;8.50;99.90;;;;;;5046628;28;20229;-48
2022/11/05 09:16:49;;;;;;;1.97;1.87;;;8.50;99.90;;;;;;5042650;28;20623;-49
2022/11/05 09:19:19;;;;;;;2.13;2.03;;;8.50;99.90;;;;;;5045280;28;20632;-51
2022/11/05 09:21:46;;;;;;;3.90;2.50;;;8.60;99.90;;;;;;5039834;28;20331;-48
2022/11/05 09:24:17;;;;;;;2.47;2.17;;;8.70;99.90;;;;;;5041631;28;20215;-48
2022/11/05 09:26:45;;;;;;;1.87;1.80;;;8.90;99.90;;;;;;5042377;28;20202;-48
2022/11/05 09:29:12;;;;;;;1.90;1.80;;;8.90;99.90;;;;;;5038455;28;20220;-49
2022/11/05 09:31:41;;;;;;;2.17;2.07;;;9.00;99.90;;;;;;5039056;28;20196;-49
2022/11/05 09:34:08;;;;;;;2.20;2.10;;;9.10;99.90;;;;;;5042193;28;20913;-49
2022/11/05 09:36:36;;;;;;;4.40;3.57;;;9.20;99.90;;;;;;5041760;28;20204;-49
2022/11/05 09:39:04;;;;;;;3.47;3.20;;;9.30;99.90;;;;;;5041683;28;20230;-48
2022/11/05 09:41:35;;;;;;;2.90;2.50;;;9.20;99.90;;;;;;5042319;28;20205;-49
2022/11/05 09:44:07;;;;;;;2.67;2.50;;;9.20;99.90;;;;;;5044111;28;20208;-49
2022/11/05 09:46:40;;;;;;;2.50;2.33;;;9.00;99.90;;;;;;5043337;28;20203;-49
2022/11/05 09:49:20;;;;;;;1.67;1.57;;;9.00;99.90;;;;;;5046365;28;20579;-49
2022/11/05 09:51:48;;;;;;;1.37;1.37;;;9.00;99.90;;;;;;5042961;28;20384;-49
2022/11/05 09:54:17;;;;;;;1.53;1.53;;;9.00;99.90;;;;;;5043792;28;20208;-49
2022/11/05 09:56:44;;;;;;;1.87;1.87;;;8.90;99.90;;;;;;5042398;28;20204;-49
2022/11/05 09:59:22;;;;;;;1.60;1.50;;;9.00;99.90;;;;;;5043389;28;20203;-49
2022/11/05 10:01:52;;;;;;;2.23;2.03;;;8.90;99.90;;;;;;5035696;28;20280;-49
2022/11/05 10:04:25;;;;;;;2.10;2.00;;;8.90;99.90;;;;;;5043358;28;20196;-49
2022/11/05 10:06:58;;;;;;;1.80;1.70;;;8.90;99.90;;;;;;5044937;28;20253;-49
2022/11/05 10:09:29;;;;;;;2.93;1.30;;;9.00;99.90;;;;;;5047462;28;20255;-49
2022/11/05 10:12:02;;;;;;;2.00;1.77;;;9.10;99.90;;;;;;5038291;28;20230;-49
2022/11/05 10:14:37;;;;;;;2.00;1.90;;;9.30;99.90;;;;;;5039681;28;20211;-49
2022/11/05 10:17:10;;;;;;;2.50;1.87;;;9.40;99.90;;;;;;5036090;28;20211;-48
2022/11/05 10:19:44;;;;;;;1.93;1.40;;;9.40;99.90;;;;;;5040855;28;20204;-49
2022/11/05 10:22:12;;;;;;;1.93;1.60;;;9.30;99.90;;;;;;5061378;22;20348;-51
2022/11/05 10:24:42;;;;;;;6.13;4.10;;;9.30;99.90;;;;;;5042835;28;20261;-51
2022/11/05 10:27:14;;;;;;;4.37;3.97;;;9.30;99.90;;;;;;5045631;28;20223;-51
2022/11/05 10:29:43;;;;;;;1.83;1.73;;;9.20;99.90;;;;;;5037155;28;20283;-50
2022/11/05 10:32:16;;;;;;;2.53;2.33;;;9.30;99.90;;;;;;5041087;28;20231;-50
2022/11/05 10:34:43;;;;;;;4.97;1.70;;;9.30;99.90;;;;;;5044161;28;20247;-51
2022/11/05 10:37:11;;;;;;;1.63;1.13;;;9.30;99.90;;;;;;5042586;28;20205;-52
2022/11/05 10:39:38;;;;;;;2.23;2.13;;;9.30;99.90;;;;;;5038411;28;20317;-52
2022/11/05 10:42:37;;;;;;;3.50;1.80;;;9.20;99.90;;;;;;5040949;28;20381;-50
2022/11/05 10:45:14;;;;;;;1.50;1.40;;;9.20;99.90;;;;;;5040762;28;20232;-54
2022/11/05 10:48:18;;;;;;;1.40;1.30;;;9.30;99.90;;;;;;5040930;28;20218;-51
2022/11/05 10:50:45;;;;;;;1.83;1.73;;;9.40;99.90;;;;;;5039194;28;20341;-50
2022/11/05 10:53:15;;;;;;;2.27;2.00;;;9.50;99.90;;;;;;5040113;28;20973;-51
2022/11/05 10:55:46;;;;;;;1.63;1.53;;;9.50;99.90;;;;;;5043091;28;20285;-52
2022/11/05 10:58:20;;;;;;;0.83;0.83;;;9.50;99.90;;;;;;5037893;28;20211;-52
2022/11/05 11:01:04;;;;;;;0.97;0.97;;;9.60;99.90;;;;;;5043207;28;20282;-53
2022/11/05 11:03:35;;;;;;;0.80;0.60;;;9.60;99.90;;;;;;5042834;28;20220;-52
2022/11/05 11:06:06;;;;;;;0.70;0.70;;;9.60;99.90;;;;;;5041697;28;20573;-52
2022/11/05 11:08:35;;;;;;;0.50;0.50;;;9.60;99.90;;;;;;5037269;28;20196;-52
2022/11/05 11:11:05;;;;;;;0.60;0.50;;;9.50;99.90;;;;;;5043624;28;20236;-52
2022/11/05 11:13:50;;;;;;;0.80;0.80;;;9.50;99.90;;;;;;5047368;28;20228;-51
2022/11/05 11:16:21;;;;;;;0.53;0.53;;;9.60;99.90;;;;;;5042406;28;20204;-51
2022/11/05 11:18:54;;;;;;;0.67;0.67;;;9.70;99.90;;;;;;5043842;28;20214;-51
2022/11/05 11:21:23;;;;;;;2.00;0.50;;;9.70;99.90;;;;;;5042341;28;20720;-52
2022/11/05 11:23:55;;;;;;;0.77;0.70;;;9.70;99.90;;;;;;5046115;28;20598;-51
2022/11/05 11:26:24;;;;;;;1.17;0.60;;;9.80;99.90;;;;;;5037661;28;20208;-51
2022/11/05 11:28:56;;;;;;;0.60;0.60;;;9.80;99.90;;;;;;5048245;28;20222;-51
2022/11/05 11:31:27;;;;;;;1.33;1.00;;;9.80;99.90;;;;;;5042620;28;20331;-52
2022/11/05 11:34:00;;;;;;;1.97;1.03;;;9.80;99.90;;;;;;5048830;28;20313;-52
2022/11/05 11:36:33;;;;;;;0.97;0.97;;;9.80;99.90;;;;;;5041198;28;20582;-51
2022/11/05 11:39:04;;;;;;;0.53;0.53;;;9.90;99.90;;;;;;5053010;28;20204;-51
2022/11/05 11:41:37;;;;;;;0.80;0.40;;;10.00;99.90;;;;;;5043658;28;20201;-50
2022/11/05 11:44:10;;;;;;;0.97;0.97;;;10.10;99.90;;;;;;5050666;28;20251;-50
2022/11/05 11:46:39;;;;;;;1.57;1.50;;;10.10;99.90;;;;;;5050153;28;20202;-51
2022/11/05 11:49:27;;;;;;;1.77;0.90;;;10.30;99.90;;;;;;5042438;28;20238;-50
2022/11/05 11:52:04;;;;;;;0.73;0.60;;;10.30;99.90;;;;;;5048467;28;20573;-51
2022/11/05 11:54:35;;;;;;;0.60;0.60;;;10.30;99.90;;;;;;5051825;28;20585;-52
2022/11/05 11:57:02;;;;;;;0.90;0.80;;;10.20;99.90;;;;;;5044586;28;20713;-52
2022/11/05 11:59:30;;;;;;;2.97;1.43;;;10.10;99.90;;;;;;5051974;28;20204;-51
2022/11/05 12:02:22;;;;;;;1.70;1.13;;;10.00;99.90;;;;;;5048286;28;20730;-51
2022/11/05 12:05:16;;;;;;;0.67;0.67;;;9.90;99.90;;;;;;5047945;28;20198;-51
2022/11/05 12:07:51;;;;;;;1.77;1.67;;;9.90;99.90;;;;;;5049802;28;20201;-52
2022/11/05 12:10:43;;;;;;;1.33;1.23;;;10.00;99.90;;;;;;5045589;28;20711;-51
2022/11/05 12:13:49;;;;;;;0.70;0.70;;;10.10;99.90;;;;;;5043878;28;20697;-51
2022/11/05 12:16:32;;;;;;;0.80;0.80;;;10.00;99.90;;;;;;5027925;28;20197;-52
2022/11/05 12:19:10;;;;;;;1.40;1.30;;;10.00;99.90;;;;;;5044433;28;20677;-51
2022/11/05 12:21:47;;;;;;;0.80;0.80;;;10.00;99.90;;;;;;5047783;28;20654;-51
2022/11/05 12:24:38;;;;;;;7.93;2.57;;;10.00;99.90;;;;;;5046501;28;20212;-51
2022/11/05 12:27:17;;;;;;;0.50;0.50;;;9.90;99.90;;;;;;5046619;28;20698;-51
2022/11/05 12:29:54;;;;;;;2.30;2.07;;;9.90;99.90;;;;;;5047012;28;20204;-51
2022/11/05 12:32:54;;;;;;;1.00;1.00;;;10.00;99.90;;;;;;5039429;28;20456;-51
2022/11/05 12:35:40;;;;;;;2.17;1.70;;;9.90;99.90;;;;;;5030276;28;20209;-52
2022/11/05 12:38:18;;;;;;;3.23;2.20;;;9.90;99.90;;;;;;5043787;28;20202;-52
2022/11/05 12:41:08;;;;;;;4.07;2.23;;;9.90;99.90;;;;;;5049053;28;20203;-52
2022/11/05 12:43:45;;;;;;;2.23;2.03;;;9.90;99.90;;;;;;5047929;28;20336;-52
2022/11/05 12:46:25;;;;;;;2.23;1.50;;;9.80;99.90;;;;;;5045933;28;20207;-52
2022/11/05 12:49:08;;;;;;;1.90;1.23;;;9.80;99.90;;;;;;5047376;28;20777;-53
2022/11/05 12:51:50;;;;;;;0.93;0.90;;;9.80;99.90;;;;;;5035223;28;20224;-51
2022/11/05 12:54:26;;;;;;;0.30;0.30;;;9.80;99.90;;;;;;5042477;28;20199;-53
2022/11/05 12:56:56;;;;;;;0.63;0.63;;;9.90;99.90;;;;;;5045647;28;20590;-50
2022/11/05 12:59:29;;;;;;;1.63;0.50;;;9.90;99.90;;;;;;5042040;28;20211;-52
2022/11/05 13:02:01;;;;;;;1.80;0.63;;;10.00;99.90;;;;;;5049231;28;20208;-51
2022/11/05 13:04:37;;;;;;;0.60;0.60;;;10.00;99.90;;;;;;5049639;28;20204;-50
2022/11/05 13:07:09;;;;;;;2.10;0.80;;;10.00;99.90;;;;;;5040538;28;20204;-50
2022/11/05 13:09:41;;;;;;;0.87;0.77;;;9.90;99.90;;;;;;5044681;28;20215;-52
2022/11/05 13:12:11;;;;;;;0.70;0.57;;;10.00;99.90;;;;;;5044447;28;20216;-50
2022/11/05 13:14:44;;;;;;;1.70;1.17;;;10.10;99.90;;;;;;5040603;28;20209;-51
2022/11/05 13:17:15;;;;;;;0.73;0.63;;;10.10;99.90;;;;;;5043034;28;20856;-50
2022/11/05 13:19:48;;;;;;;1.90;1.03;;;10.10;99.90;;;;;;5040489;28;20230;-51
2022/11/05 13:22:27;;;;;;;0.50;0.50;;;10.20;99.90;;;;;;5051084;28;20228;-52
2022/11/05 13:24:59;;;;;;;1.37;0.93;;;10.20;99.90;;;;;;5041032;28;20207;-51
2022/11/05 13:27:58;;;;;;;1.10;0.70;;;10.10;99.90;;;;;;5038304;28;20451;-52
2022/11/05 13:30:29;;;;;;;0.60;0.40;;;10.10;99.90;;;;;;5041855;28;20254;-50
2022/11/05 13:33:03;;;;;;;0.90;0.60;;;10.20;99.90;;;;;;5045234;28;20231;-51
2022/11/05 13:35:34;;;;;;;1.70;0.33;;;10.20;99.90;;;;;;5044165;28;20206;-49
2022/11/05 13:41:05;;;;;;;1.17;0.70;;;10.00;99.90;;;;;;5044172;28;20581;-49
2022/11/05 13:43:58;;;;;;;3.27;0.90;;;10.00;99.90;;;;;;5043445;28;20223;-51
2022/11/05 13:46:51;;;;;;;2.57;0.87;;;9.90;99.90;;;;;;5044657;28;20539;-50
2022/11/05 13:49:55;;;;;;;1.10;1.10;;;9.90;99.90;;;;;;5046266;28;20236;-52
2022/11/05 13:52:41;;;;;;;0.93;0.93;;;9.80;99.90;;;;;;5040205;28;20220;-52
2022/11/05 13:55:36;;;;;;;0.73;0.70;;;9.80;99.90;;;;;;5043758;28;20685;-52
2022/11/05 13:58:30;;;;;;;0.80;0.80;;;9.90;99.90;;;;;;5042340;28;20211;-51
2022/11/05 14:01:08;;;;;;;0.30;0.30;;;9.90;99.90;;;;;;5041108;28;20226;-51
2022/11/05 14:03:36;;;;;;;0.40;0.40;;;9.90;99.90;;;;;;5048762;28;20217;-51